sensor_id;sensor_type;location;lat;lon;timestamp;P1;durP1;ratioP1;P2;durP2;ratioP2
34982;SDS011;21187;50.976;13.720;2022-12-18T00:00:43;37.17;;;12.70;;
34982;SDS011;21187;50.976;13.720;2022-12-18T00:05:49;44.63;;;15.85;;
34982;SDS011;21187;50.976;13.720;2022-12-18T00:10:52;73.60;;;23.90;;
34982;SDS011;21187;50.976;13.720;2022-12-18T00:16:03;49.03;;;16.03;;
34982;SDS011;21187;50.976;13.720;2022-12-18T00:21:07;38.72;;;12.07;;
34982;SDS011;21187;50.976;13.720;2022-12-18T00:26:12;35.45;;;12.13;;
34982;SDS011;21187;50.976;13.720;2022-12-18T00:31:17;40.97;;;12.80;;
34982;SDS011;21187;50.976;13.720;2022-12-18T00:36:22;37.15;;;12.20;;
34982;SDS011;21187;50.976;13.720;2022-12-18T00:41:27;32.47;;;12.23;;
34982;SDS011;21187;50.976;13.720;2022-12-18T00:46:48;37.92;;;13.07;;
34982;SDS011;21187;50.976;13.720;2022-12-18T00:51:50;35.10;;;12.93;;
34982;SDS011;21187;50.976;13.720;2022-12-18T00:56:52;40.53;;;11.77;;
34982;SDS011;21187;50.976;13.720;2022-12-18T01:01:54;34.55;;;11.50;;
34982;SDS011;21187;50.976;13.720;2022-12-18T01:06:56;34.90;;;12.00;;
34982;SDS011;21187;50.976;13.720;2022-12-18T01:11:58;43.38;;;12.85;;
34982;SDS011;21187;50.976;13.720;2022-12-18T01:17:00;38.08;;;12.90;;
34982;SDS011;21187;50.976;13.720;2022-12-18T01:22:06;41.47;;;13.70;;
34982;SDS011;21187;50.976;13.720;2022-12-18T01:27:08;37.13;;;12.18;;
34982;SDS011;21187;50.976;13.720;2022-12-18T01:32:11;33.28;;;12.50;;
34982;SDS011;21187;50.976;13.720;2022-12-18T01:37:12;33.97;;;11.75;;
34982;SDS011;21187;50.976;13.720;2022-12-18T01:42:15;34.75;;;11.52;;
34982;SDS011;21187;50.976;13.720;2022-12-18T01:52:26;36.38;;;12.07;;
34982;SDS011;21187;50.976;13.720;2022-12-18T01:57:30;35.33;;;11.10;;
34982;SDS011;21187;50.976;13.720;2022-12-18T02:02:33;32.33;;;11.20;;
34982;SDS011;21187;50.976;13.720;2022-12-18T02:18:24;30.33;;;9.75;;
34982;SDS011;21187;50.976;13.720;2022-12-18T02:23:36;28.58;;;10.30;;
34982;SDS011;21187;50.976;13.720;2022-12-18T02:29:01;31.00;;;10.90;;
34982;SDS011;21187;50.976;13.720;2022-12-18T02:34:10;28.67;;;8.75;;
34982;SDS011;21187;50.976;13.720;2022-12-18T02:39:14;29.75;;;8.82;;
34982;SDS011;21187;50.976;13.720;2022-12-18T02:44:30;33.75;;;9.35;;
34982;SDS011;21187;50.976;13.720;2022-12-18T03:11:14;23.02;;;7.60;;
34982;SDS011;21187;50.976;13.720;2022-12-18T03:16:27;26.80;;;7.82;;
34982;SDS011;21187;50.976;13.720;2022-12-18T03:21:34;23.95;;;8.40;;
34982;SDS011;21187;50.976;13.720;2022-12-18T03:26:43;27.88;;;8.18;;
34982;SDS011;21187;50.976;13.720;2022-12-18T03:31:49;20.98;;;7.10;;
34982;SDS011;21187;50.976;13.720;2022-12-18T03:36:55;23.48;;;8.25;;
34982;SDS011;21187;50.976;13.720;2022-12-18T03:42:01;26.55;;;7.85;;
34982;SDS011;21187;50.976;13.720;2022-12-18T03:47:58;24.08;;;7.10;;
34982;SDS011;21187;50.976;13.720;2022-12-18T03:53:22;17.35;;;5.85;;
34982;SDS011;21187;50.976;13.720;2022-12-18T03:58:34;21.37;;;7.30;;
34982;SDS011;21187;50.976;13.720;2022-12-18T04:03:50;19.60;;;6.63;;
34982;SDS011;21187;50.976;13.720;2022-12-18T04:08:54;19.63;;;6.70;;
34982;SDS011;21187;50.976;13.720;2022-12-18T04:13:59;19.15;;;7.25;;
34982;SDS011;21187;50.976;13.720;2022-12-18T04:19:07;20.73;;;6.07;;
34982;SDS011;21187;50.976;13.720;2022-12-18T04:24:13;17.70;;;6.10;;
34982;SDS011;21187;50.976;13.720;2022-12-18T04:29:25;18.83;;;6.43;;
34982;SDS011;21187;50.976;13.720;2022-12-18T04:34:27;13.13;;;5.97;;
34982;SDS011;21187;50.976;13.720;2022-12-18T04:39:29;17.88;;;5.70;;
34982;SDS011;21187;50.976;13.720;2022-12-18T04:44:37;13.57;;;4.27;;
34982;SDS011;21187;50.976;13.720;2022-12-18T04:49:39;15.05;;;5.20;;
34982;SDS011;21187;50.976;13.720;2022-12-18T04:54:41;13.43;;;5.10;;
34982;SDS011;21187;50.976;13.720;2022-12-18T04:59:43;14.55;;;4.82;;
34982;SDS011;21187;50.976;13.720;2022-12-18T05:04:45;18.08;;;5.35;;
34982;SDS011;21187;50.976;13.720;2022-12-18T05:09:47;15.45;;;5.20;;
34982;SDS011;21187;50.976;13.720;2022-12-18T05:14:49;13.68;;;4.75;;
34982;SDS011;21187;50.976;13.720;2022-12-18T05:19:51;13.40;;;5.13;;
34982;SDS011;21187;50.976;13.720;2022-12-18T05:24:53;16.25;;;4.72;;
34982;SDS011;21187;50.976;13.720;2022-12-18T05:29:54;15.07;;;5.22;;
34982;SDS011;21187;50.976;13.720;2022-12-18T05:34:56;18.95;;;6.43;;
34982;SDS011;21187;50.976;13.720;2022-12-18T05:39:58;16.10;;;5.85;;
34982;SDS011;21187;50.976;13.720;2022-12-18T05:45:00;17.35;;;6.57;;
34982;SDS011;21187;50.976;13.720;2022-12-18T05:50:02;24.77;;;7.38;;
34982;SDS011;21187;50.976;13.720;2022-12-18T05:55:04;21.52;;;7.82;;
34982;SDS011;21187;50.976;13.720;2022-12-18T06:00:06;13.73;;;6.05;;
34982;SDS011;21187;50.976;13.720;2022-12-18T06:05:12;13.75;;;5.68;;
34982;SDS011;21187;50.976;13.720;2022-12-18T06:10:14;17.30;;;5.03;;
34982;SDS011;21187;50.976;13.720;2022-12-18T06:15:16;22.23;;;6.90;;
34982;SDS011;21187;50.976;13.720;2022-12-18T06:20:18;12.05;;;4.85;;
34982;SDS011;21187;50.976;13.720;2022-12-18T06:25:20;15.15;;;5.88;;
34982;SDS011;21187;50.976;13.720;2022-12-18T06:30:22;10.27;;;5.05;;
34982;SDS011;21187;50.976;13.720;2022-12-18T06:35:24;13.10;;;5.18;;
34982;SDS011;21187;50.976;13.720;2022-12-18T06:40:26;15.27;;;5.60;;
34982;SDS011;21187;50.976;13.720;2022-12-18T06:45:28;12.25;;;4.85;;
34982;SDS011;21187;50.976;13.720;2022-12-18T06:50:30;20.85;;;5.10;;
34982;SDS011;21187;50.976;13.720;2022-12-18T06:55:32;15.07;;;6.50;;
34982;SDS011;21187;50.976;13.720;2022-12-18T07:00:34;17.13;;;6.85;;
34982;SDS011;21187;50.976;13.720;2022-12-18T07:05:39;22.30;;;8.32;;
34982;SDS011;21187;50.976;13.720;2022-12-18T07:10:42;25.85;;;10.20;;
34982;SDS011;21187;50.976;13.720;2022-12-18T07:15:48;26.00;;;9.35;;
34982;SDS011;21187;50.976;13.720;2022-12-18T07:20:50;17.63;;;7.10;;
34982;SDS011;21187;50.976;13.720;2022-12-18T07:25:52;20.88;;;8.43;;
34982;SDS011;21187;50.976;13.720;2022-12-18T07:30:54;19.58;;;7.50;;
34982;SDS011;21187;50.976;13.720;2022-12-18T07:35:58;25.02;;;8.75;;
34982;SDS011;21187;50.976;13.720;2022-12-18T07:41:04;21.50;;;7.43;;
34982;SDS011;21187;50.976;13.720;2022-12-18T07:46:08;28.80;;;8.15;;
34982;SDS011;21187;50.976;13.720;2022-12-18T07:51:13;18.85;;;7.57;;
34982;SDS011;21187;50.976;13.720;2022-12-18T07:56:16;24.15;;;8.45;;
34982;SDS011;21187;50.976;13.720;2022-12-18T08:01:28;17.58;;;6.72;;
34982;SDS011;21187;50.976;13.720;2022-12-18T08:06:30;20.23;;;8.18;;
34982;SDS011;21187;50.976;13.720;2022-12-18T08:11:32;30.92;;;10.27;;
34982;SDS011;21187;50.976;13.720;2022-12-18T08:16:34;25.63;;;8.82;;
34982;SDS011;21187;50.976;13.720;2022-12-18T08:21:36;22.10;;;8.02;;
34982;SDS011;21187;50.976;13.720;2022-12-18T08:26:38;25.20;;;8.02;;
34982;SDS011;21187;50.976;13.720;2022-12-18T08:31:40;23.27;;;7.97;;
34982;SDS011;21187;50.976;13.720;2022-12-18T08:36:42;21.27;;;8.32;;
34982;SDS011;21187;50.976;13.720;2022-12-18T08:41:44;23.33;;;8.73;;
34982;SDS011;21187;50.976;13.720;2022-12-18T08:47:10;21.33;;;8.43;;
34982;SDS011;21187;50.976;13.720;2022-12-18T08:52:12;22.40;;;8.18;;
34982;SDS011;21187;50.976;13.720;2022-12-18T08:57:17;18.98;;;7.95;;
34982;SDS011;21187;50.976;13.720;2022-12-18T09:02:19;20.95;;;7.55;;
34982;SDS011;21187;50.976;13.720;2022-12-18T09:07:21;25.00;;;9.38;;
34982;SDS011;21187;50.976;13.720;2022-12-18T09:12:23;27.15;;;9.38;;
34982;SDS011;21187;50.976;13.720;2022-12-18T09:17:25;29.77;;;10.35;;
34982;SDS011;21187;50.976;13.720;2022-12-18T09:22:27;28.10;;;10.32;;
34982;SDS011;21187;50.976;13.720;2022-12-18T09:27:29;27.67;;;10.35;;
34982;SDS011;21187;50.976;13.720;2022-12-18T09:32:31;25.20;;;10.45;;
34982;SDS011;21187;50.976;13.720;2022-12-18T09:37:33;26.50;;;9.93;;
34982;SDS011;21187;50.976;13.720;2022-12-18T09:42:34;30.67;;;10.23;;
34982;SDS011;21187;50.976;13.720;2022-12-18T09:47:37;21.15;;;9.07;;
34982;SDS011;21187;50.976;13.720;2022-12-18T09:52:43;28.27;;;10.18;;
34982;SDS011;21187;50.976;13.720;2022-12-18T09:57:51;33.47;;;13.20;;
34982;SDS011;21187;50.976;13.720;2022-12-18T10:02:59;34.33;;;11.35;;
34982;SDS011;21187;50.976;13.720;2022-12-18T10:13:31;36.00;;;11.63;;
34982;SDS011;21187;50.976;13.720;2022-12-18T10:24:14;35.05;;;13.18;;
34982;SDS011;21187;50.976;13.720;2022-12-18T10:29:28;60.55;;;16.42;;
34982;SDS011;21187;50.976;13.720;2022-12-18T10:34:30;47.28;;;14.77;;
34982;SDS011;21187;50.976;13.720;2022-12-18T10:39:32;55.10;;;18.27;;
34982;SDS011;21187;50.976;13.720;2022-12-18T10:44:33;123.53;;;36.95;;
34982;SDS011;21187;50.976;13.720;2022-12-18T10:49:35;72.32;;;23.63;;
34982;SDS011;21187;50.976;13.720;2022-12-18T10:54:38;69.15;;;21.50;;
34982;SDS011;21187;50.976;13.720;2022-12-18T11:00:18;65.50;;;20.67;;
34982;SDS011;21187;50.976;13.720;2022-12-18T11:10:36;53.42;;;15.82;;
34982;SDS011;21187;50.976;13.720;2022-12-18T11:15:39;38.97;;;12.30;;
34982;SDS011;21187;50.976;13.720;2022-12-18T11:20:42;50.42;;;15.40;;
34982;SDS011;21187;50.976;13.720;2022-12-18T11:25:59;48.42;;;15.45;;
34982;SDS011;21187;50.976;13.720;2022-12-18T11:31:20;60.72;;;18.95;;
34982;SDS011;21187;50.976;13.720;2022-12-18T11:36:35;50.88;;;18.20;;
34982;SDS011;21187;50.976;13.720;2022-12-18T11:41:49;50.10;;;18.25;;
34982;SDS011;21187;50.976;13.720;2022-12-18T11:47:22;47.50;;;17.05;;
34982;SDS011;21187;50.976;13.720;2022-12-18T11:52:38;58.75;;;18.88;;
34982;SDS011;21187;50.976;13.720;2022-12-18T12:08:18;57.50;;;16.40;;
34982;SDS011;21187;50.976;13.720;2022-12-18T12:18:49;50.78;;;17.30;;
34982;SDS011;21187;50.976;13.720;2022-12-18T12:35:15;61.85;;;19.65;;
34982;SDS011;21187;50.976;13.720;2022-12-18T12:40:19;55.00;;;20.20;;
34982;SDS011;21187;50.976;13.720;2022-12-18T12:45:55;54.78;;;17.70;;
34982;SDS011;21187;50.976;13.720;2022-12-18T12:51:34;49.87;;;16.40;;
34982;SDS011;21187;50.976;13.720;2022-12-18T13:02:09;51.50;;;15.50;;
34982;SDS011;21187;50.976;13.720;2022-12-18T13:07:29;43.95;;;15.27;;
34982;SDS011;21187;50.976;13.720;2022-12-18T13:12:56;37.22;;;14.77;;
34982;SDS011;21187;50.976;13.720;2022-12-18T13:18:03;42.55;;;13.68;;
34982;SDS011;21187;50.976;13.720;2022-12-18T13:33:46;48.05;;;15.63;;
34982;SDS011;21187;50.976;13.720;2022-12-18T13:44:17;41.90;;;14.65;;
34982;SDS011;21187;50.976;13.720;2022-12-18T13:54:39;40.42;;;14.82;;
34982;SDS011;21187;50.976;13.720;2022-12-18T13:59:43;44.05;;;16.60;;
34982;SDS011;21187;50.976;13.720;2022-12-18T14:04:45;38.58;;;12.82;;
34982;SDS011;21187;50.976;13.720;2022-12-18T14:09:55;39.15;;;13.10;;
34982;SDS011;21187;50.976;13.720;2022-12-18T14:20:26;39.97;;;12.63;;
34982;SDS011;21187;50.976;13.720;2022-12-18T14:25:32;40.28;;;13.32;;
34982;SDS011;21187;50.976;13.720;2022-12-18T14:30:38;45.33;;;13.43;;
34982;SDS011;21187;50.976;13.720;2022-12-18T14:35:58;35.47;;;13.02;;
34982;SDS011;21187;50.976;13.720;2022-12-18T14:41:03;49.10;;;16.75;;
34982;SDS011;21187;50.976;13.720;2022-12-18T14:51:34;31.60;;;11.45;;
34982;SDS011;21187;50.976;13.720;2022-12-18T14:56:45;35.05;;;12.95;;
34982;SDS011;21187;50.976;13.720;2022-12-18T15:01:55;35.85;;;12.02;;
34982;SDS011;21187;50.976;13.720;2022-12-18T15:17:44;39.50;;;13.27;;
34982;SDS011;21187;50.976;13.720;2022-12-18T15:22:45;44.40;;;13.93;;
34982;SDS011;21187;50.976;13.720;2022-12-18T15:27:49;49.00;;;15.48;;
34982;SDS011;21187;50.976;13.720;2022-12-18T15:32:51;45.70;;;13.82;;
34982;SDS011;21187;50.976;13.720;2022-12-18T15:37:54;55.10;;;17.73;;
34982;SDS011;21187;50.976;13.720;2022-12-18T15:42:56;41.40;;;14.05;;
34982;SDS011;21187;50.976;13.720;2022-12-18T15:48:21;44.83;;;12.98;;
34982;SDS011;21187;50.976;13.720;2022-12-18T15:53:33;38.95;;;13.90;;
34982;SDS011;21187;50.976;13.720;2022-12-18T15:58:35;45.78;;;13.45;;
34982;SDS011;21187;50.976;13.720;2022-12-18T16:03:37;53.65;;;15.27;;
34982;SDS011;21187;50.976;13.720;2022-12-18T16:08:39;38.15;;;13.48;;
34982;SDS011;21187;50.976;13.720;2022-12-18T16:13:42;42.65;;;13.73;;
34982;SDS011;21187;50.976;13.720;2022-12-18T16:18:44;47.08;;;13.80;;
34982;SDS011;21187;50.976;13.720;2022-12-18T16:23:46;47.45;;;15.05;;
34982;SDS011;21187;50.976;13.720;2022-12-18T16:28:47;45.35;;;14.68;;
34982;SDS011;21187;50.976;13.720;2022-12-18T16:33:49;42.05;;;13.27;;
34982;SDS011;21187;50.976;13.720;2022-12-18T16:38:51;44.28;;;13.90;;
34982;SDS011;21187;50.976;13.720;2022-12-18T16:43:53;45.92;;;13.68;;
34982;SDS011;21187;50.976;13.720;2022-12-18T16:48:56;36.92;;;11.90;;
34982;SDS011;21187;50.976;13.720;2022-12-18T16:54:00;47.70;;;13.95;;
34982;SDS011;21187;50.976;13.720;2022-12-18T16:59:10;37.25;;;12.02;;
34982;SDS011;21187;50.976;13.720;2022-12-18T17:04:13;41.40;;;13.65;;
34982;SDS011;21187;50.976;13.720;2022-12-18T17:09:16;48.53;;;14.68;;
34982;SDS011;21187;50.976;13.720;2022-12-18T17:14:37;33.45;;;11.40;;
34982;SDS011;21187;50.976;13.720;2022-12-18T17:19:39;35.60;;;11.52;;
34982;SDS011;21187;50.976;13.720;2022-12-18T17:24:41;42.22;;;12.52;;
34982;SDS011;21187;50.976;13.720;2022-12-18T17:29:44;41.80;;;11.95;;
34982;SDS011;21187;50.976;13.720;2022-12-18T17:34:49;40.97;;;13.07;;
34982;SDS011;21187;50.976;13.720;2022-12-18T17:39:51;39.42;;;12.32;;
34982;SDS011;21187;50.976;13.720;2022-12-18T17:44:53;28.63;;;11.30;;
34982;SDS011;21187;50.976;13.720;2022-12-18T17:49:55;36.03;;;13.48;;
34982;SDS011;21187;50.976;13.720;2022-12-18T17:54:57;38.78;;;13.95;;
34982;SDS011;21187;50.976;13.720;2022-12-18T17:59:59;42.42;;;13.02;;
34982;SDS011;21187;50.976;13.720;2022-12-18T18:05:01;40.25;;;14.27;;
34982;SDS011;21187;50.976;13.720;2022-12-18T18:10:03;39.38;;;13.68;;
34982;SDS011;21187;50.976;13.720;2022-12-18T18:15:07;39.25;;;12.02;;
34982;SDS011;21187;50.976;13.720;2022-12-18T18:20:09;30.13;;;10.27;;
34982;SDS011;21187;50.976;13.720;2022-12-18T18:25:15;32.47;;;12.18;;
34982;SDS011;21187;50.976;13.720;2022-12-18T18:30:18;36.15;;;12.35;;
34982;SDS011;21187;50.976;13.720;2022-12-18T18:35:23;37.22;;;12.32;;
34982;SDS011;21187;50.976;13.720;2022-12-18T18:40:45;42.22;;;12.95;;
34982;SDS011;21187;50.976;13.720;2022-12-18T18:45:47;38.05;;;12.18;;
34982;SDS011;21187;50.976;13.720;2022-12-18T18:50:59;84.00;;;29.27;;
34982;SDS011;21187;50.976;13.720;2022-12-18T18:56:05;35.53;;;13.18;;
34982;SDS011;21187;50.976;13.720;2022-12-18T19:01:28;34.65;;;13.25;;
34982;SDS011;21187;50.976;13.720;2022-12-18T19:06:30;40.83;;;12.15;;
34982;SDS011;21187;50.976;13.720;2022-12-18T19:11:33;34.45;;;12.82;;
34982;SDS011;21187;50.976;13.720;2022-12-18T19:16:54;34.17;;;11.57;;
34982;SDS011;21187;50.976;13.720;2022-12-18T19:21:57;37.38;;;13.05;;
34982;SDS011;21187;50.976;13.720;2022-12-18T19:26:59;35.53;;;11.10;;
34982;SDS011;21187;50.976;13.720;2022-12-18T19:32:03;37.05;;;11.90;;
34982;SDS011;21187;50.976;13.720;2022-12-18T19:37:06;41.83;;;13.82;;
34982;SDS011;21187;50.976;13.720;2022-12-18T19:42:08;35.53;;;12.48;;
34982;SDS011;21187;50.976;13.720;2022-12-18T19:47:11;34.13;;;11.65;;
34982;SDS011;21187;50.976;13.720;2022-12-18T19:52:16;31.60;;;11.27;;
34982;SDS011;21187;50.976;13.720;2022-12-18T19:57:18;34.80;;;13.50;;
34982;SDS011;21187;50.976;13.720;2022-12-18T20:02:20;34.40;;;10.25;;
34982;SDS011;21187;50.976;13.720;2022-12-18T20:07:25;28.05;;;9.23;;
34982;SDS011;21187;50.976;13.720;2022-12-18T20:12:27;31.98;;;11.73;;
34982;SDS011;21187;50.976;13.720;2022-12-18T20:17:31;30.35;;;9.20;;
34982;SDS011;21187;50.976;13.720;2022-12-18T20:22:34;23.83;;;7.95;;
34982;SDS011;21187;50.976;13.720;2022-12-18T20:27:36;27.50;;;8.57;;
34982;SDS011;21187;50.976;13.720;2022-12-18T20:32:38;26.45;;;9.35;;
34982;SDS011;21187;50.976;13.720;2022-12-18T20:37:39;24.27;;;9.38;;
34982;SDS011;21187;50.976;13.720;2022-12-18T20:42:48;23.92;;;8.20;;
34982;SDS011;21187;50.976;13.720;2022-12-18T20:47:55;21.25;;;8.57;;
34982;SDS011;21187;50.976;13.720;2022-12-18T20:52:57;30.38;;;10.18;;
34982;SDS011;21187;50.976;13.720;2022-12-18T20:57:59;22.75;;;8.80;;
34982;SDS011;21187;50.976;13.720;2022-12-18T21:03:00;24.05;;;8.57;;
34982;SDS011;21187;50.976;13.720;2022-12-18T21:08:03;21.20;;;7.35;;
34982;SDS011;21187;50.976;13.720;2022-12-18T21:13:05;19.38;;;7.43;;
34982;SDS011;21187;50.976;13.720;2022-12-18T21:18:10;19.20;;;6.85;;
34982;SDS011;21187;50.976;13.720;2022-12-18T21:23:12;22.05;;;6.30;;
34982;SDS011;21187;50.976;13.720;2022-12-18T21:28:17;25.98;;;8.68;;
34982;SDS011;21187;50.976;13.720;2022-12-18T21:33:19;21.83;;;7.88;;
34982;SDS011;21187;50.976;13.720;2022-12-18T21:38:21;23.73;;;8.13;;
34982;SDS011;21187;50.976;13.720;2022-12-18T21:43:22;29.90;;;8.57;;
34982;SDS011;21187;50.976;13.720;2022-12-18T21:48:43;23.63;;;8.27;;
34982;SDS011;21187;50.976;13.720;2022-12-18T21:53:44;31.40;;;9.68;;
34982;SDS011;21187;50.976;13.720;2022-12-18T21:58:49;24.83;;;9.20;;
34982;SDS011;21187;50.976;13.720;2022-12-18T22:03:57;27.45;;;10.50;;
34982;SDS011;21187;50.976;13.720;2022-12-18T22:08:59;26.98;;;8.95;;
34982;SDS011;21187;50.976;13.720;2022-12-18T22:14:01;31.58;;;10.48;;
34982;SDS011;21187;50.976;13.720;2022-12-18T22:19:03;35.17;;;10.80;;
34982;SDS011;21187;50.976;13.720;2022-12-18T22:24:06;35.10;;;11.35;;
34982;SDS011;21187;50.976;13.720;2022-12-18T22:29:15;33.75;;;11.10;;
34982;SDS011;21187;50.976;13.720;2022-12-18T22:34:37;39.75;;;12.15;;
34982;SDS011;21187;50.976;13.720;2022-12-18T22:39:39;32.75;;;11.77;;
34982;SDS011;21187;50.976;13.720;2022-12-18T22:44:42;33.20;;;10.82;;
34982;SDS011;21187;50.976;13.720;2022-12-18T22:49:43;30.05;;;10.80;;
34982;SDS011;21187;50.976;13.720;2022-12-18T22:54:45;36.67;;;11.32;;
34982;SDS011;21187;50.976;13.720;2022-12-18T22:59:48;32.65;;;11.60;;
34982;SDS011;21187;50.976;13.720;2022-12-18T23:04:50;35.53;;;11.77;;
34982;SDS011;21187;50.976;13.720;2022-12-18T23:09:52;32.55;;;11.90;;
34982;SDS011;21187;50.976;13.720;2022-12-18T23:15:01;25.50;;;11.07;;
34982;SDS011;21187;50.976;13.720;2022-12-18T23:20:04;34.83;;;12.70;;
34982;SDS011;21187;50.976;13.720;2022-12-18T23:25:06;31.70;;;11.75;;
34982;SDS011;21187;50.976;13.720;2022-12-18T23:30:08;29.10;;;11.10;;
34982;SDS011;21187;50.976;13.720;2022-12-18T23:35:10;33.63;;;11.27;;
34982;SDS011;21187;50.976;13.720;2022-12-18T23:40:16;35.28;;;11.30;;
34982;SDS011;21187;50.976;13.720;2022-12-18T23:45:18;35.30;;;12.07;;
34982;SDS011;21187;50.976;13.720;2022-12-18T23:50:20;36.83;;;12.90;;
34982;SDS011;21187;50.976;13.720;2022-12-18T23:55:29;41.67;;;13.88;;
